createdAt,value
2022-09-12T00:01:45.454Z,6.90
2022-09-12T00:04:13.289Z,6.50
2022-09-12T00:06:42.498Z,6.30
2022-09-12T00:09:30.234Z,6.50
2022-09-12T00:11:58.052Z,6.90
2022-09-12T00:14:28.031Z,6.70
2022-09-12T00:17:00.214Z,7.20
2022-09-12T00:19:40.379Z,6.90
2022-09-12T00:22:11.404Z,6.90
2022-09-12T00:24:41.017Z,6.80
2022-09-12T00:27:09.386Z,6.70
2022-09-12T00:29:37.743Z,7.00
2022-09-12T00:32:06.661Z,6.90
2022-09-12T00:34:34.974Z,7.20
2022-09-12T00:37:03.864Z,7.00
2022-09-12T00:39:31.993Z,6.60
2022-09-12T00:41:59.845Z,7.20
2022-09-12T00:44:34.823Z,7.00
2022-09-12T00:47:11.256Z,7.20
2022-09-12T00:49:51.552Z,6.80
2022-09-12T00:52:28.513Z,7.30
2022-09-12T00:55:28.142Z,7.30
2022-09-12T00:58:05.450Z,7.40
2022-09-12T01:00:34.631Z,7.40
2022-09-12T01:03:11.619Z,7.50
2022-09-12T01:06:10.987Z,7.70
2022-09-12T01:08:43.881Z,7.70
2022-09-12T01:11:13.622Z,7.50
2022-09-12T01:13:57.147Z,7.30
2022-09-12T01:16:46.701Z,7.10
2022-09-12T01:19:25.721Z,7.60
2022-09-12T01:22:21.047Z,7.30
2022-09-12T01:25:04.336Z,7.30
2022-09-12T01:28:04.654Z,7.80
2022-09-12T01:31:01.098Z,7.50
2022-09-12T01:33:48.593Z,7.60
2022-09-12T01:36:26.367Z,7.20
2022-09-12T01:39:14.186Z,7.20
2022-09-12T01:41:54.620Z,7.80
2022-09-12T01:44:45.265Z,8.00
2022-09-12T01:47:26.466Z,7.60
2022-09-12T01:50:03.180Z,7.30
2022-09-12T01:52:41.654Z,7.10
2022-09-12T01:55:45.639Z,6.80
2022-09-12T01:58:34.181Z,7.70
2022-09-12T02:01:04.898Z,7.30
2022-09-12T02:03:41.835Z,8.20
2022-09-12T02:06:19.909Z,8.20
2022-09-12T02:09:04.674Z,7.70
2022-09-12T02:11:41.845Z,7.80
2022-09-12T02:14:21.416Z,8.50
2022-09-12T02:16:55.673Z,7.80
2022-09-12T02:22:31.971Z,8.20
2022-09-12T02:25:05.629Z,8.40
2022-09-12T02:28:02.169Z,8.30
2022-09-12T02:30:39.956Z,8.40
2022-09-12T02:33:50.162Z,8.00
2022-09-12T02:36:35.083Z,8.50
2022-09-12T02:39:04.517Z,8.20
2022-09-12T02:41:33.267Z,8.40
2022-09-12T02:44:05.850Z,8.60
2022-09-12T02:46:41.278Z,8.70
2022-09-12T02:49:11.064Z,8.90
2022-09-12T02:51:42.098Z,9.30
2022-09-12T02:54:11.972Z,8.70
2022-09-12T02:56:43.840Z,8.60
2022-09-12T02:59:18.537Z,9.20
2022-09-12T03:02:10.264Z,9.20
2022-09-12T03:05:01.030Z,10.20
2022-09-12T03:07:47.846Z,8.70
2022-09-12T03:10:33.807Z,9.60
2022-09-12T03:13:44.166Z,9.30
2022-09-12T03:16:36.838Z,9.40
2022-09-12T03:19:31.282Z,9.70
2022-09-12T03:22:19.569Z,9.90
2022-09-12T03:25:18.368Z,10.50
2022-09-12T03:27:48.496Z,11.20
2022-09-12T03:30:17.076Z,11.00
2022-09-12T03:32:52.907Z,12.00
2022-09-12T03:35:23.765Z,11.00
2022-09-12T03:37:54.145Z,11.90
2022-09-12T03:40:25.131Z,12.20
2022-09-12T03:42:53.869Z,12.00
2022-09-12T03:45:22.867Z,11.30
2022-09-12T03:47:51.798Z,12.00
2022-09-12T03:50:23.181Z,12.40
2022-09-12T03:52:56.138Z,13.00
2022-09-12T03:55:28.365Z,11.60
2022-09-12T03:57:57.749Z,12.10
2022-09-12T04:00:26.529Z,12.60
2022-09-12T04:02:57.166Z,13.00
2022-09-12T04:05:26.476Z,11.60
2022-09-12T04:07:54.352Z,11.50
2022-09-12T04:10:23.790Z,11.50
2022-09-12T04:12:59.178Z,11.00
2022-09-12T04:15:31.837Z,10.60
2022-09-12T04:18:05.730Z,11.20
2022-09-12T04:20:39.657Z,10.80
2022-09-12T04:23:11.984Z,11.00
2022-09-12T04:25:41.412Z,10.90
2022-09-12T04:28:10.898Z,10.60
2022-09-12T04:30:46.077Z,10.60
2022-09-12T04:33:15.661Z,10.40
2022-09-12T04:35:50.528Z,10.60
2022-09-12T04:38:46.289Z,10.30
2022-09-12T04:41:25.656Z,10.30
2022-09-12T04:43:58.492Z,11.00
2022-09-12T04:46:26.741Z,11.50
2022-09-12T04:48:57.100Z,11.90
2022-09-12T04:51:29.221Z,12.30
2022-09-12T04:54:00.870Z,11.20
2022-09-12T04:56:30.883Z,11.30
2022-09-12T04:59:00.774Z,11.20
2022-09-12T05:01:32.199Z,10.40
2022-09-12T05:04:06.115Z,10.80
2022-09-12T05:06:41.983Z,11.40
2022-09-12T05:09:14.186Z,12.00
2022-09-12T05:12:03.670Z,11.70
2022-09-12T05:14:35.211Z,11.40
2022-09-12T05:17:07.837Z,11.70
2022-09-12T05:19:36.113Z,12.10
2022-09-12T05:22:06.756Z,13.60
2022-09-12T05:24:35.369Z,12.00
2022-09-12T05:27:04.855Z,12.10
2022-09-12T05:29:37.813Z,10.20
2022-09-12T05:32:05.755Z,9.40
2022-09-12T05:34:33.888Z,10.00
2022-09-12T05:37:02.150Z,10.10
2022-09-12T05:39:30.764Z,9.20
2022-09-12T05:41:59.254Z,8.90
2022-09-12T05:44:54.462Z,8.30
2022-09-12T05:47:23.654Z,8.60
2022-09-12T05:49:52.651Z,8.80
2022-09-12T05:52:21.403Z,10.00
2022-09-12T05:54:50.084Z,9.30
2022-09-12T05:57:20.694Z,8.60
2022-09-12T05:59:49.844Z,8.40
2022-09-12T06:02:18.388Z,8.50
2022-09-12T06:04:47.293Z,8.80
2022-09-12T06:07:18.530Z,9.10
2022-09-12T06:09:46.327Z,8.70
2022-09-12T06:12:14.570Z,8.30
2022-09-12T06:14:42.637Z,9.10
2022-09-12T06:17:12.075Z,8.70
2022-09-12T06:19:40.628Z,9.20
2022-09-12T06:22:08.616Z,9.00
2022-09-12T06:24:36.836Z,8.70
2022-09-12T06:27:05.276Z,8.20
2022-09-12T06:29:33.426Z,8.10
2022-09-12T06:32:01.984Z,8.10
2022-09-12T06:34:31.147Z,8.50
2022-09-12T06:36:58.986Z,7.90
2022-09-12T06:39:27.137Z,8.10
2022-09-12T06:41:55.751Z,8.10
2022-09-12T06:44:33.993Z,8.20
2022-09-12T06:47:02.554Z,8.60
2022-09-12T06:49:33.279Z,8.10
2022-09-12T06:52:04.073Z,8.20
2022-09-12T06:54:32.305Z,8.70
2022-09-12T06:57:02.257Z,8.50
2022-09-12T06:59:31.695Z,8.50
2022-09-12T07:02:01.727Z,8.00
2022-09-12T07:04:34.435Z,7.50
2022-09-12T07:07:02.986Z,7.90
2022-09-12T07:09:45.061Z,7.60
2022-09-12T07:12:12.848Z,7.80
2022-09-12T07:14:41.924Z,8.20
2022-09-12T07:17:11.045Z,7.50
2022-09-12T07:19:39.383Z,7.40
2022-09-12T07:22:08.116Z,7.30
2022-09-12T07:24:36.158Z,7.20
2022-09-12T07:27:04.035Z,7.20
2022-09-12T07:29:36.843Z,6.80
2022-09-12T07:32:08.883Z,6.50
2022-09-12T07:34:36.802Z,7.30
2022-09-12T07:37:06.193Z,6.80
2022-09-12T07:39:34.215Z,6.80
2022-09-12T07:42:06.157Z,7.30
2022-09-12T07:44:35.268Z,7.60
2022-09-12T07:47:05.215Z,7.30
2022-09-12T07:49:33.498Z,7.00
2022-09-12T07:52:02.759Z,7.90
2022-09-12T07:54:33.585Z,8.60
2022-09-12T07:57:01.954Z,7.90
2022-09-12T07:59:51.409Z,8.50
2022-09-12T08:02:18.799Z,8.70
2022-09-12T08:04:59.689Z,8.60
2022-09-12T08:07:27.440Z,9.00
2022-09-12T08:09:55.601Z,8.90
2022-09-12T08:12:23.644Z,8.90
2022-09-12T08:14:51.921Z,8.80
2022-09-12T08:17:20.210Z,8.90
2022-09-12T08:19:49.346Z,8.40
2022-09-12T08:22:21.986Z,9.20
2022-09-12T08:24:51.120Z,8.50
2022-09-12T08:27:20.006Z,8.90
2022-09-12T08:29:48.467Z,8.30
2022-09-12T08:32:17.387Z,8.60
2022-09-12T08:34:45.438Z,8.30
2022-09-12T08:37:14.015Z,9.20
2022-09-12T08:39:42.118Z,8.50
2022-09-12T08:42:14.127Z,7.80
2022-09-12T08:45:08.305Z,8.30
2022-09-12T08:47:47.179Z,7.50
2022-09-12T08:50:22.160Z,7.40
2022-09-12T08:53:14.422Z,7.40
2022-09-12T08:55:59.019Z,7.70
2022-09-12T08:58:30.137Z,6.60
2022-09-12T09:01:39.596Z,7.30
2022-09-12T09:04:11.140Z,5.70
2022-09-12T09:07:00.180Z,6.00
2022-09-12T09:09:44.858Z,6.20
2022-09-12T09:12:28.154Z,5.80
2022-09-12T09:15:12.305Z,5.10
2022-09-12T09:18:13.437Z,6.60
2022-09-12T09:20:58.638Z,6.00
2022-09-12T09:23:42.532Z,5.70
2022-09-12T09:26:26.651Z,4.80
2022-09-12T09:29:26.228Z,5.40
2022-09-12T09:31:58.007Z,5.80
2022-09-12T09:34:31.567Z,5.70
2022-09-12T09:40:02.722Z,5.90
2022-09-12T09:42:49.129Z,5.40
2022-09-12T09:45:20.737Z,5.70
2022-09-12T09:47:54.630Z,6.50
2022-09-12T09:52:54.085Z,6.00
2022-09-12T09:55:28.247Z,6.40
2022-09-12T09:57:56.766Z,6.10
2022-09-12T10:00:32.369Z,6.20
2022-09-12T10:03:14.091Z,6.80
2022-09-12T10:05:54.002Z,7.40
2022-09-12T10:08:24.913Z,6.50
2022-09-12T10:11:02.909Z,4.40
2022-09-12T10:13:39.653Z,4.50
2022-09-12T10:16:20.606Z,4.50
2022-09-12T10:18:53.892Z,4.60
2022-09-12T10:21:35.985Z,4.70
2022-09-12T10:24:27.508Z,5.20
2022-09-12T10:27:05.726Z,5.40
2022-09-12T10:30:03.135Z,4.80
2022-09-12T10:32:41.795Z,3.70
2022-09-12T10:35:28.095Z,4.20
2022-09-12T10:38:00.324Z,4.10
2022-09-12T10:40:36.201Z,4.00
2022-09-12T10:43:18.640Z,3.90
2022-09-12T10:45:47.139Z,5.40
2022-09-12T10:48:32.702Z,3.90
2022-09-12T10:51:02.206Z,3.70
2022-09-12T10:53:41.750Z,4.00
2022-09-12T10:56:15.568Z,3.80
2022-09-12T10:59:04.175Z,3.80
2022-09-12T11:01:47.302Z,4.10
2022-09-12T11:04:42.225Z,4.00
2022-09-12T11:07:33.500Z,3.90
2022-09-12T11:10:18.324Z,3.30
2022-09-12T11:13:04.106Z,3.50
2022-09-12T11:16:05.290Z,3.50
2022-09-12T11:18:42.450Z,3.10
2022-09-12T11:21:21.699Z,3.70
2022-09-12T11:24:17.921Z,2.80
2022-09-12T11:27:06.489Z,3.50
2022-09-12T11:29:59.437Z,2.40
2022-09-12T11:32:50.520Z,2.60
2022-09-12T11:35:35.970Z,2.70
2022-09-12T11:38:39.324Z,2.50
2022-09-12T11:41:20.426Z,2.70
2022-09-12T11:43:58.045Z,2.40
2022-09-12T11:46:36.939Z,3.70
2022-09-12T11:49:15.428Z,2.70
2022-09-12T11:51:46.559Z,2.50
2022-09-12T11:54:26.355Z,2.40
2022-09-12T11:57:19.059Z,2.80
2022-09-12T11:59:57.052Z,3.00
2022-09-12T12:03:02.958Z,3.50
2022-09-12T12:06:04.236Z,3.80
2022-09-12T12:08:40.993Z,3.10
2022-09-12T12:11:10.931Z,3.40
2022-09-12T12:14:04.786Z,3.30
2022-09-12T12:19:14.527Z,3.30
2022-09-12T12:21:47.599Z,2.90
2022-09-12T12:24:23.646Z,3.00
2022-09-12T12:27:07.532Z,3.30
2022-09-12T12:29:44.137Z,3.10
2022-09-12T12:32:13.339Z,3.20
2022-09-12T12:34:43.108Z,3.30
2022-09-12T12:37:25.671Z,3.10
2022-09-12T12:40:23.782Z,3.20
2022-09-12T12:43:05.079Z,4.00
2022-09-12T12:45:36.346Z,3.90
2022-09-12T12:48:15.057Z,3.70
2022-09-12T12:50:43.420Z,3.20
2022-09-12T12:53:24.326Z,2.90
2022-09-12T12:55:55.892Z,2.50
2022-09-12T12:58:39.773Z,2.80
2022-09-12T13:01:13.634Z,2.80
2022-09-12T13:03:46.332Z,2.40
2022-09-12T13:06:45.680Z,2.70
2022-09-12T13:09:57.534Z,2.30
2022-09-12T13:12:34.291Z,2.10
2022-09-12T13:15:06.327Z,2.30
2022-09-12T13:17:37.244Z,2.10
2022-09-12T13:20:28.637Z,2.90
2022-09-12T13:22:58.406Z,2.20
2022-09-12T13:25:34.088Z,2.40
2022-09-12T13:28:14.014Z,3.60
2022-09-12T13:31:00.518Z,3.20
2022-09-12T13:33:44.168Z,2.50
2022-09-12T13:37:10.414Z,2.20
2022-09-12T13:39:49.945Z,2.50
2022-09-12T13:42:39.134Z,2.80
2022-09-12T13:45:16.444Z,2.90
2022-09-12T13:47:47.209Z,2.90
2022-09-12T13:50:20.378Z,3.00
2022-09-12T13:52:54.324Z,2.60
2022-09-12T13:58:33.831Z,2.60
2022-09-12T14:01:16.482Z,3.30
2022-09-12T14:04:14.629Z,2.40
2022-09-12T14:06:50.674Z,2.40
2022-09-12T14:09:30.424Z,2.50
2022-09-12T14:11:59.118Z,3.20
2022-09-12T14:14:33.024Z,3.00
2022-09-12T14:17:00.945Z,2.70
2022-09-12T14:19:30.440Z,2.50
2022-09-12T14:21:58.772Z,2.90
2022-09-12T14:24:27.290Z,2.80
2022-09-12T14:26:56.937Z,3.40
2022-09-12T14:29:27.019Z,2.70
2022-09-12T14:32:05.502Z,3.30
2022-09-12T14:34:34.291Z,3.40
2022-09-12T14:37:06.519Z,2.80
2022-09-12T14:39:44.870Z,2.70
2022-09-12T14:42:18.015Z,2.70
2022-09-12T14:45:16.138Z,2.70
2022-09-12T14:47:49.159Z,3.20
2022-09-12T14:50:24.969Z,2.80
2022-09-12T14:53:35.080Z,2.90
2022-09-12T14:56:09.740Z,3.30
2022-09-12T14:58:42.128Z,2.80
2022-09-12T15:01:13.343Z,2.80
2022-09-12T15:03:49.275Z,2.90
2022-09-12T15:06:27.845Z,2.80
2022-09-12T15:08:58.377Z,2.80
2022-09-12T15:11:26.532Z,2.50
2022-09-12T15:13:55.169Z,3.50
2022-09-12T15:16:23.096Z,2.90
2022-09-12T15:18:51.274Z,5.10
2022-09-12T15:21:21.286Z,3.70
2022-09-12T15:23:51.321Z,3.80
2022-09-12T15:26:24.201Z,2.80
2022-09-12T15:28:56.175Z,2.50
2022-09-12T15:31:33.689Z,3.30
2022-09-12T15:34:03.588Z,4.40
2022-09-12T15:36:33.043Z,4.80
2022-09-12T15:39:01.982Z,3.20
2022-09-12T15:41:38.277Z,2.90
2022-09-12T15:44:17.872Z,2.70
2022-09-12T15:46:46.703Z,3.00
2022-09-12T15:49:14.573Z,3.00
2022-09-12T15:51:43.532Z,3.10
2022-09-12T15:54:17.598Z,3.10
2022-09-12T15:56:45.458Z,3.10
2022-09-12T15:59:13.749Z,3.40
2022-09-12T16:01:42.086Z,2.80
2022-09-12T16:04:26.016Z,2.90
2022-09-12T16:06:56.223Z,4.90
2022-09-12T16:09:24.603Z,3.40
2022-09-12T16:11:53.163Z,3.10
2022-09-12T16:14:21.374Z,3.30
2022-09-12T16:16:54.476Z,2.80
2022-09-12T16:19:22.622Z,3.00
2022-09-12T16:21:53.764Z,3.20
2022-09-12T16:24:22.252Z,3.10
2022-09-12T16:26:50.135Z,3.30
2022-09-12T16:29:22.916Z,3.60
2022-09-12T16:31:51.343Z,3.40
2022-09-12T16:34:19.441Z,3.90
2022-09-12T16:36:48.287Z,3.60
2022-09-12T16:39:16.762Z,3.50
2022-09-12T16:41:50.314Z,4.40
2022-09-12T16:44:26.193Z,4.70
2022-09-12T16:46:55.558Z,5.70
2022-09-12T16:49:23.922Z,7.30
2022-09-12T16:51:53.094Z,6.90
2022-09-12T16:54:26.653Z,9.50
2022-09-12T16:56:57.928Z,9.10
2022-09-12T16:59:28.164Z,9.60
2022-09-12T17:01:57.471Z,11.00
2022-09-12T17:04:25.841Z,11.90
2022-09-12T17:07:01.022Z,10.10
2022-09-12T17:09:31.965Z,11.90
2022-09-12T17:12:05.040Z,12.30
2022-09-12T17:14:33.518Z,15.00
2022-09-12T17:17:02.056Z,12.90
2022-09-12T17:19:33.474Z,11.50
2022-09-12T17:22:01.535Z,14.40
2022-09-12T17:24:32.013Z,15.50
2022-09-12T17:27:42.888Z,15.80
2022-09-12T17:30:13.935Z,14.50
2022-09-12T17:32:42.498Z,14.00
2022-09-12T17:35:13.908Z,13.30
2022-09-12T17:37:42.751Z,18.80
2022-09-12T17:40:14.324Z,16.90
2022-09-12T17:42:46.198Z,14.10
2022-09-12T17:45:18.317Z,17.50
2022-09-12T17:47:48.543Z,27.40
2022-09-12T17:50:31.432Z,19.70
2022-09-12T17:53:01.574Z,17.50
2022-09-12T17:55:32.831Z,14.50
2022-09-12T17:58:04.279Z,13.10
2022-09-12T18:00:51.929Z,13.10
2022-09-12T18:03:24.948Z,13.20
2022-09-12T18:05:56.840Z,12.50
2022-09-12T18:08:26.091Z,11.50
2022-09-12T18:10:55.372Z,11.00
2022-09-12T18:13:23.708Z,10.50
2022-09-12T18:15:52.775Z,10.80
2022-09-12T18:18:21.414Z,10.40
2022-09-12T18:20:53.043Z,10.00
2022-09-12T18:23:21.459Z,10.40
2022-09-12T18:25:49.612Z,11.10
2022-09-12T18:28:19.363Z,10.40
2022-09-12T18:30:47.748Z,11.10
2022-09-12T18:33:24.200Z,10.30
2022-09-12T18:35:53.449Z,13.60
2022-09-12T18:38:22.648Z,11.80
2022-09-12T18:40:51.045Z,10.60
2022-09-12T18:43:19.340Z,11.80
2022-09-12T18:45:48.807Z,10.30
2022-09-12T18:48:19.342Z,10.20
2022-09-12T18:50:47.917Z,11.40
2022-09-12T18:53:20.378Z,9.20
2022-09-12T18:55:50.723Z,9.00
2022-09-12T18:58:19.615Z,9.00
2022-09-12T19:00:50.079Z,9.20
2022-09-12T19:03:19.002Z,9.80
2022-09-12T19:05:50.571Z,10.00
2022-09-12T19:08:28.705Z,9.30
2022-09-12T19:10:57.901Z,9.40
2022-09-12T19:13:29.517Z,9.00
2022-09-12T19:15:59.859Z,11.00
2022-09-12T19:18:27.982Z,11.00
2022-09-12T19:20:55.877Z,10.90
2022-09-12T19:23:24.114Z,10.40
2022-09-12T19:25:58.002Z,9.80
2022-09-12T19:28:31.124Z,10.40
2022-09-12T19:30:59.468Z,10.50
2022-09-12T19:33:27.680Z,11.00
2022-09-12T19:35:56.027Z,11.30
2022-09-12T19:38:24.810Z,11.10
2022-09-12T19:41:00.808Z,11.80
2022-09-12T19:43:30.090Z,13.10
2022-09-12T19:45:59.470Z,14.60
2022-09-12T19:48:28.926Z,14.30
2022-09-12T19:51:02.109Z,13.60
2022-09-12T19:53:31.216Z,18.70
2022-09-12T19:56:04.275Z,21.00
2022-09-12T19:58:38.318Z,19.20
2022-09-12T20:01:23.163Z,18.70
2022-09-12T20:04:11.499Z,17.20
2022-09-12T20:06:40.395Z,18.20
2022-09-12T20:09:11.175Z,17.70
2022-09-12T20:11:38.999Z,17.20
2022-09-12T20:14:08.238Z,19.70
2022-09-12T20:16:36.887Z,16.70
2022-09-12T20:19:09.973Z,16.60
2022-09-12T20:21:39.341Z,16.10
2022-09-12T20:24:12.910Z,15.70
2022-09-12T20:26:42.033Z,18.00
2022-09-12T20:29:11.079Z,16.50
2022-09-12T20:31:41.726Z,16.40
2022-09-12T20:34:19.158Z,17.10
2022-09-12T20:36:50.285Z,16.30
2022-09-12T20:39:20.996Z,17.40
2022-09-12T20:41:49.703Z,15.20
2022-09-12T20:44:18.037Z,15.40
2022-09-12T20:46:46.902Z,15.00
2022-09-12T20:49:36.163Z,13.90
2022-09-12T20:52:04.859Z,12.90
2022-09-12T20:54:32.723Z,13.00
2022-09-12T20:57:02.171Z,12.50
2022-09-12T20:59:30.122Z,12.70
2022-09-12T21:01:59.501Z,12.90
2022-09-12T21:04:28.341Z,12.70
2022-09-12T21:06:56.513Z,12.90
2022-09-12T21:09:25.073Z,11.80
2022-09-12T21:11:53.792Z,12.30
2022-09-12T21:14:22.173Z,12.60
2022-09-12T21:16:50.851Z,12.90
2022-09-12T21:19:19.132Z,13.50
2022-09-12T21:21:47.291Z,12.60
2022-09-12T21:24:15.789Z,12.70
2022-09-12T21:26:43.701Z,13.50
2022-09-12T21:29:12.350Z,13.10
2022-09-12T21:31:40.166Z,12.90
2022-09-12T21:34:10.964Z,13.40
2022-09-12T21:36:40.066Z,13.20
2022-09-12T21:39:09.094Z,14.40
2022-09-12T21:41:37.902Z,13.70
2022-09-12T21:44:08.204Z,14.10
2022-09-12T21:46:36.536Z,13.50
2022-09-12T21:49:05.919Z,12.80
2022-09-12T21:51:36.129Z,12.80
2022-09-12T21:54:04.468Z,13.40
2022-09-12T21:56:36.814Z,13.90
2022-09-12T21:59:08.092Z,13.10
2022-09-12T22:01:39.038Z,13.30
2022-09-12T22:04:10.929Z,13.50
2022-09-12T22:06:39.483Z,12.70
2022-09-12T22:09:08.024Z,13.40
2022-09-12T22:11:36.844Z,13.50
2022-09-12T22:14:05.323Z,12.70
2022-09-12T22:16:33.920Z,12.60
2022-09-12T22:19:04.348Z,13.50
2022-09-12T22:21:56.125Z,12.50
2022-09-12T22:24:30.426Z,12.90
2022-09-12T22:27:03.336Z,13.70
2022-09-12T22:29:36.095Z,13.00
2022-09-12T22:32:05.478Z,13.70
2022-09-12T22:34:35.171Z,13.50
2022-09-12T22:37:28.352Z,13.60
2022-09-12T22:39:56.631Z,13.90
2022-09-12T22:42:26.794Z,13.40
2022-09-12T22:44:54.714Z,13.60
2022-09-12T22:47:23.268Z,13.00
2022-09-12T22:49:57.212Z,13.10
2022-09-12T22:52:26.559Z,12.90
2022-09-12T22:54:55.257Z,13.80
2022-09-12T22:57:23.787Z,14.20
2022-09-12T22:59:52.987Z,14.40
2022-09-12T23:02:20.907Z,13.90
2022-09-12T23:04:52.301Z,13.40
2022-09-12T23:07:20.546Z,12.80
2022-09-12T23:09:48.713Z,13.80
2022-09-12T23:12:17.222Z,13.80
2022-09-12T23:14:44.974Z,13.50
2022-09-12T23:17:15.631Z,14.00
2022-09-12T23:19:44.135Z,13.70
2022-09-12T23:22:12.697Z,14.40
2022-09-12T23:24:41.338Z,14.00
2022-09-12T23:27:09.309Z,13.90
2022-09-12T23:29:37.121Z,14.20
2022-09-12T23:32:08.079Z,13.60
2022-09-12T23:34:35.925Z,13.40
2022-09-12T23:37:04.682Z,13.30
2022-09-12T23:39:40.221Z,13.20
2022-09-12T23:42:09.880Z,13.30
2022-09-12T23:44:38.792Z,13.30
2022-09-12T23:47:07.137Z,13.10
2022-09-12T23:49:35.867Z,12.80
2022-09-12T23:52:04.243Z,12.30
2022-09-12T23:54:33.024Z,13.20
2022-09-12T23:57:01.330Z,13.20
2022-09-12T23:59:31.169Z,13.30
